Time;durP1;ratioP1;P1;durP2;ratioP2;P2;SDS_P1;SDS_P2;PMS_P1;PMS_P2;Temp;Humidity;BMP_temperature;BMP_pressure;BME280_temperature;BME280_humidity;BME280_pressure;Samples;Min_cycle;Max_cycle;Signal;HPM_P1;HPM_P2
2022/10/09 04:00:49;;;;;;;8.82;6.43;;;;;;;;;;5805329;22;20428;-90
2022/10/09 04:03:15;;;;;;;6.47;5.88;;;;;;;;;;5028184;28;20910;-90
2022/10/09 04:05:41;;;;;;;5.90;5.22;;;;;;;;;;5028844;28;20398;-90
2022/10/09 04:08:08;;;;;;;6.60;5.80;;;;;;;;;;5030797;28;20860;-89
2022/10/09 04:10:34;;;;;;;8.18;5.82;;;;;;;;;;5022537;28;20408;-90
2022/10/09 04:13:00;;;;;;;5.80;5.07;;;;;;;;;;5028676;28;20942;-90
2022/10/09 04:15:26;;;;;;;6.90;5.32;;;;;;;;;;5030019;28;20398;-90
2022/10/09 04:17:52;;;;;;;7.47;5.45;;;;;;;;;;5031589;28;20414;-90
2022/10/09 04:20:19;;;;;;;6.07;4.55;;;;;;;;;;5031620;28;20376;-89
2022/10/09 04:22:45;;;;;;;7.10;4.82;;;;;;;;;;5031945;28;20710;-90
2022/10/09 04:25:11;;;;;;;6.43;4.50;;;;;;;;;;5031800;28;20387;-90
2022/10/09 04:27:37;;;;;;;6.43;4.53;;;;;;;;;;5034317;28;20433;-90
2022/10/09 04:30:04;;;;;;;5.15;4.22;;;;;;;;;;5035650;28;20386;-91
2022/10/09 04:32:30;;;;;;;6.28;4.32;;;;;;;;;;5035586;28;20387;-91
2022/10/09 04:34:56;;;;;;;6.20;4.18;;;;;;;;;;5049560;28;20435;-90
2022/10/09 04:37:22;;;;;;;5.60;3.92;;;;;;;;;;5035588;28;20406;-89
2022/10/09 04:39:48;;;;;;;6.22;4.00;;;;;;;;;;5035438;28;20441;-91
2022/10/09 04:42:14;;;;;;;6.60;3.63;;;;;;;;;;5035339;28;20378;-90
2022/10/09 04:44:40;;;;;;;5.65;4.22;;;;;;;;;;5034384;28;20470;-89
2022/10/09 04:47:06;;;;;;;6.53;4.22;;;;;;;;;;5035334;28;20379;-90
2022/10/09 04:49:32;;;;;;;5.88;4.63;;;;;;;;;;5033539;28;20466;-89
2022/10/09 04:51:58;;;;;;;6.53;4.50;;;;;;;;;;5048439;28;20378;-90
2022/10/09 04:54:24;;;;;;;5.90;4.88;;;;;;;;;;5034520;28;20923;-90
2022/10/09 04:56:50;;;;;;;5.63;4.85;;;;;;;;;;5034978;28;20382;-89
2022/10/09 04:59:16;;;;;;;5.03;4.53;;;;;;;;;;5035045;28;20995;-90
2022/10/09 05:01:41;;;;;;;6.28;4.75;;;;;;;;;;5034915;28;20403;-90
2022/10/09 05:04:08;;;;;;;6.78;5.07;;;;;;;;;;5035087;28;20927;-90
2022/10/09 05:06:34;;;;;;;5.57;4.57;;;;;;;;;;5033761;28;20895;-90
2022/10/09 05:09:00;;;;;;;7.20;5.00;;;;;;;;;;5035460;28;20423;-91
2022/10/09 05:11:26;;;;;;;6.32;4.72;;;;;;;;;;5045494;28;20481;-90
2022/10/09 05:13:53;;;;;;;5.28;4.75;;;;;;;;;;5034950;28;20389;-90
2022/10/09 05:16:24;;;;;;;7.53;4.80;;;;;;;;;;5034768;28;20379;-90
2022/10/09 05:18:51;;;;;;;6.63;4.37;;;;;;;;;;5034718;28;20403;-90
2022/10/09 05:21:18;;;;;;;6.00;4.72;;;;;;;;;;5032865;28;20895;-89
2022/10/09 05:23:45;;;;;;;5.10;4.38;;;;;;;;;;5034782;28;20425;-89
2022/10/09 05:26:12;;;;;;;6.47;4.50;;;;;;;;;;5034566;28;20417;-89
2022/10/09 05:28:38;;;;;;;6.10;4.35;;;;;;;;;;5034066;28;20809;-90
2022/10/09 05:31:05;;;;;;;7.65;4.72;;;;;;;;;;5033791;28;20791;-88
2022/10/09 05:33:31;;;;;;;7.38;4.82;;;;;;;;;;5032895;28;20856;-90
2022/10/09 05:35:59;;;;;;;6.85;4.53;;;;;;;;;;5034036;28;20386;-89
2022/10/09 05:38:26;;;;;;;6.13;4.60;;;;;;;;;;5032927;28;20422;-89
2022/10/09 05:40:56;;;;;;;6.68;5.13;;;;;;;;;;5034506;28;20379;-90
2022/10/09 05:43:23;;;;;;;5.75;4.72;;;;;;;;;;5034294;28;20875;-89
2022/10/09 05:45:48;;;;;;;6.47;4.72;;;;;;;;;;5034341;28;20391;-89
2022/10/09 05:48:15;;;;;;;6.43;4.63;;;;;;;;;;5034148;28;20475;-89
2022/10/09 05:50:41;;;;;;;7.03;5.53;;;;;;;;;;5034272;28;20417;-88
2022/10/09 05:53:07;;;;;;;5.78;5.00;;;;;;;;;;5032635;28;20434;-89
2022/10/09 05:55:33;;;;;;;5.50;4.72;;;;;;;;;;5034069;28;20390;-89
2022/10/09 05:57:59;;;;;;;5.65;4.97;;;;;;;;;;5034082;28;20410;-91
2022/10/09 06:00:25;;;;;;;7.13;5.30;;;;;;;;;;5033887;28;20387;-89
2022/10/09 06:02:51;;;;;;;7.13;5.03;;;;;;;;;;5033878;28;20383;-89
2022/10/09 06:05:17;;;;;;;5.75;5.10;;;;;;;;;;5033645;28;20387;-89
2022/10/09 06:07:43;;;;;;;5.75;4.80;;;;;;;;;;5033878;28;20869;-89
2022/10/09 06:10:09;;;;;;;6.38;4.85;;;;;;;;;;5033706;28;20380;-89
2022/10/09 06:12:35;;;;;;;6.50;5.53;;;;;;;;;;5033523;28;20395;-89
2022/10/09 06:15:01;;;;;;;6.03;5.47;;;;;;;;;;5033982;28;20861;-90
2022/10/09 06:17:27;;;;;;;7.43;5.68;;;;;;;;;;5033647;28;20421;-88
2022/10/09 06:19:53;;;;;;;7.40;5.80;;;;;;;;;;5033134;28;20938;-88
2022/10/09 06:22:19;;;;;;;7.32;6.05;;;;;;;;;;5032944;28;20383;-89
2022/10/09 06:24:45;;;;;;;7.60;5.60;;;;;;;;;;5033421;28;20383;-90
2022/10/09 06:27:12;;;;;;;6.83;5.87;;;;;;;;;;5033644;28;20467;-88
2022/10/09 06:29:38;;;;;;;6.90;6.20;;;;;;;;;;5033621;28;20735;-89
2022/10/09 06:32:04;;;;;;;6.70;6.10;;;;;;;;;;5033503;28;20390;-89
2022/10/09 06:34:30;;;;;;;6.50;5.85;;;;;;;;;;5033317;28;20395;-89
2022/10/09 06:36:56;;;;;;;7.20;6.20;;;;;;;;;;5032864;28;20753;-91
2022/10/09 06:39:22;;;;;;;6.68;5.95;;;;;;;;;;5033250;28;20760;-88
2022/10/09 06:41:48;;;;;;;7.28;6.25;;;;;;;;;;5033068;28;20524;-89
2022/10/09 06:44:15;;;;;;;7.35;6.45;;;;;;;;;;5033240;28;20502;-88
2022/10/09 06:46:42;;;;;;;7.40;5.82;;;;;;;;;;5032976;28;20895;-88
2022/10/09 06:49:09;;;;;;;7.57;6.28;;;;;;;;;;5032738;28;20391;-89
2022/10/09 06:51:36;;;;;;;8.82;6.55;;;;;;;;;;5032866;28;20926;-89
2022/10/09 06:54:03;;;;;;;7.55;6.03;;;;;;;;;;5033296;28;20736;-90
2022/10/09 06:56:30;;;;;;;7.78;6.50;;;;;;;;;;5032886;28;20379;-89
2022/10/09 06:58:59;;;;;;;7.00;6.07;;;;;;;;;;5031566;28;20403;-90
2022/10/09 07:01:29;;;;;;;6.75;5.78;;;;;;;;;;5031175;28;20419;-89
2022/10/09 07:03:56;;;;;;;8.88;5.93;;;;;;;;;;5048228;28;20386;-91
2022/10/09 07:06:23;;;;;;;6.85;5.97;;;;;;;;;;5034532;28;20391;-91
2022/10/09 07:08:50;;;;;;;6.50;5.90;;;;;;;;;;5031727;28;20460;-92
2022/10/09 07:11:21;;;;;;;7.22;6.05;;;;;;;;;;5030921;28;20387;-90
2022/10/09 07:13:47;;;;;;;8.10;6.63;;;;;;;;;;5031777;28;20421;-89
2022/10/09 07:16:13;;;;;;;7.68;6.93;;;;;;;;;;5032373;28;20421;-91
2022/10/09 07:18:39;;;;;;;8.30;7.10;;;;;;;;;;5031045;28;20414;-92
2022/10/09 07:21:07;;;;;;;11.02;7.32;;;;;;;;;;5030396;28;20379;-92
2022/10/09 07:23:33;;;;;;;9.48;7.32;;;;;;;;;;5019350;28;20391;-88
2022/10/09 07:25:59;;;;;;;9.40;7.75;;;;;;;;;;5031505;28;20457;-91
2022/10/09 07:28:26;;;;;;;8.13;7.30;;;;;;;;;;5031517;28;20478;-90
2022/10/09 07:30:52;;;;;;;8.37;7.57;;;;;;;;;;5026536;28;20392;-91
2022/10/09 07:33:18;;;;;;;10.15;7.60;;;;;;;;;;5030718;28;20910;-91
2022/10/09 07:35:52;;;;;;;9.35;7.53;;;;;;;;;;5031561;28;20383;-89
2022/10/09 07:38:18;;;;;;;8.45;7.57;;;;;;;;;;5029695;28;20490;-90
2022/10/09 07:40:44;;;;;;;8.82;7.90;;;;;;;;;;5031795;28;20382;-86
2022/10/09 07:43:10;;;;;;;8.85;7.05;;;;;;;;;;5032172;28;20737;-90
2022/10/09 07:45:36;;;;;;;9.30;7.40;;;;;;;;;;5022192;28;20403;-91
2022/10/09 07:48:02;;;;;;;8.45;7.55;;;;;;;;;;5041453;28;20383;-90
2022/10/09 07:50:28;;;;;;;7.57;6.88;;;;;;;;;;5037691;23;20906;31
2022/10/09 07:52:54;;;;;;;8.27;7.37;;;;;;;;;;4930584;29;20474;-91
2022/10/09 07:55:20;;;;;;;7.85;7.05;;;;;;;;;;4931091;28;20388;-90
2022/10/09 07:57:46;;;;;;;9.07;8.00;;;;;;;;;;4931989;29;20449;-90
2022/10/09 08:00:12;;;;;;;8.40;7.60;;;;;;;;;;4932129;29;20399;-90
2022/10/09 08:02:38;;;;;;;7.88;7.07;;;;;;;;;;4916385;29;20397;-91
2022/10/09 08:05:04;;;;;;;7.65;6.95;;;;;;;;;;4916408;28;20385;-90
2022/10/09 08:07:30;;;;;;;8.27;7.47;;;;;;;;;;4916568;28;20394;-91
2022/10/09 08:09:56;;;;;;;8.55;7.45;;;;;;;;;;4916529;28;20432;-88
2022/10/09 08:12:22;;;;;;;8.13;7.07;;;;;;;;;;4919567;28;20521;-92
2022/10/09 08:14:48;;;;;;;7.95;6.88;;;;;;;;;;4916020;28;20874;-90
2022/10/09 08:17:15;;;;;;;10.55;7.63;;;;;;;;;;4916386;28;20400;-91
2022/10/09 08:19:41;;;;;;;8.07;7.43;;;;;;;;;;4916503;28;20406;-90
2022/10/09 08:22:07;;;;;;;8.60;7.80;;;;;;;;;;4916415;28;20473;-90
2022/10/09 08:24:33;;;;;;;10.63;7.82;;;;;;;;;;4914708;28;20803;-90
2022/10/09 08:26:59;;;;;;;8.07;6.97;;;;;;;;;;4961949;28;20385;-91
2022/10/09 08:29:25;;;;;;;8.90;7.05;;;;;;;;;;5014596;28;20380;-89
2022/10/09 08:31:52;;;;;;;8.05;6.75;;;;;;;;;;5015783;28;20395;-90
2022/10/09 08:34:18;;;;;;;8.00;6.97;;;;;;;;;;5015913;28;20443;-91
2022/10/09 08:36:44;;;;;;;7.28;6.57;;;;;;;;;;5014207;28;20415;-89
2022/10/09 08:39:10;;;;;;;8.35;6.80;;;;;;;;;;5015543;28;20439;-90
2022/10/09 08:41:41;;;;;;;8.90;7.38;;;;;;;;;;4928463;28;20942;-92
2022/10/09 08:44:18;;;;;;;7.50;6.80;;;;;;;;;;4916045;28;20420;-91
2022/10/09 08:47:03;;;;;;;8.68;7.20;;;;;;;;;;4915667;28;20746;-91
2022/10/09 08:49:36;;;;;;;8.05;7.18;;;;;;;;;;4914748;28;20393;-91
2022/10/09 08:52:31;;;;;;;8.93;6.90;;;;;;;;;;4916673;28;20401;-91
2022/10/09 08:54:59;;;;;;;7.53;6.60;;;;;;;;;;4931504;28;20413;-91
2022/10/09 08:57:28;;;;;;;8.52;6.63;;;;;;;;;;4913970;28;20762;-91
2022/10/09 08:59:56;;;;;;;7.32;6.60;;;;;;;;;;4940770;28;20419;-90
2022/10/09 09:02:40;;;;;;;7.28;6.55;;;;;;;;;;4905392;29;20397;-91
2022/10/09 09:05:26;;;;;;;6.50;5.90;;;;;;;;;;4929705;28;20397;-91
2022/10/09 09:07:59;;;;;;;7.88;5.85;;;;;;;;;;4963156;28;20385;-92
2022/10/09 09:10:30;;;;;;;7.78;6.10;;;;;;;;;;4945665;28;20445;-91
2022/10/09 09:13:02;;;;;;;6.82;6.13;;;;;;;;;;4910986;29;20925;-90
2022/10/09 09:15:44;;;;;;;6.07;5.15;;;;;;;;;;4914484;28;20397;-92
2022/10/09 09:18:26;;;;;;;7.35;5.45;;;;;;;;;;4914147;28;20491;-91
2022/10/09 09:21:01;;;;;;;6.80;5.32;;;;;;;;;;4913966;28;20444;-90
2022/10/09 09:23:38;;;;;;;5.45;4.90;;;;;;;;;;4929265;28;20386;-92
2022/10/09 09:26:10;;;;;;;5.45;4.95;;;;;;;;;;4914270;28;20390;-90
2022/10/09 09:28:36;;;;;;;5.97;5.38;;;;;;;;;;4961561;28;20416;-91
2022/10/09 09:31:06;;;;;;;6.03;5.35;;;;;;;;;;5014894;28;20459;-89
2022/10/09 09:33:42;;;;;;;5.88;5.28;;;;;;;;;;4941750;28;20428;-91
2022/10/09 09:36:13;;;;;;;6.20;5.20;;;;;;;;;;4913520;28;20883;-91
2022/10/09 09:38:39;;;;;;;6.05;4.72;;;;;;;;;;4915337;28;20475;-91
2022/10/09 09:41:05;;;;;;;6.43;5.30;;;;;;;;;;4915301;28;20397;-90
2022/10/09 09:43:31;;;;;;;6.03;4.78;;;;;;;;;;4915481;28;20928;-90
2022/10/09 09:45:59;;;;;;;6.88;5.10;;;;;;;;;;4915214;28;20389;-90
2022/10/09 09:48:39;;;;;;;7.78;5.20;;;;;;;;;;4914571;29;20393;-90
2022/10/09 09:51:07;;;;;;;7.32;4.95;;;;;;;;;;4915026;28;20397;-91
2022/10/09 09:53:35;;;;;;;7.15;4.68;;;;;;;;;;4915138;28;20404;-90
2022/10/09 09:56:01;;;;;;;5.57;5.07;;;;;;;;;;4915288;28;20472;-91
2022/10/09 09:58:53;;;;;;;6.20;4.70;;;;;;;;;;4914722;28;20417;-90
2022/10/09 10:01:24;;;;;;;8.68;4.80;;;;;;;;;;4915420;29;20875;-89
2022/10/09 10:03:52;;;;;;;6.15;4.28;;;;;;;;;;4913537;28;20397;-90
2022/10/09 10:06:38;;;;;;;6.63;4.60;;;;;;;;;;4914908;28;20386;-90
2022/10/09 10:09:11;;;;;;;10.15;4.60;;;;;;;;;;4916298;28;20769;-90
2022/10/09 10:11:42;;;;;;;6.83;4.70;;;;;;;;;;4912802;28;20755;-89
2022/10/09 10:14:09;;;;;;;7.10;4.50;;;;;;;;;;4989921;28;20471;-89
2022/10/09 10:16:37;;;;;;;5.97;4.43;;;;;;;;;;4975164;28;20412;-90
2022/10/09 10:19:04;;;;;;;7.75;4.85;;;;;;;;;;4914129;28;20503;-87
2022/10/09 10:21:39;;;;;;;7.07;5.07;;;;;;;;;;4914520;29;20778;-87
2022/10/09 10:24:09;;;;;;;6.90;4.32;;;;;;;;;;4913966;29;20392;-87
2022/10/09 10:26:38;;;;;;;6.15;4.50;;;;;;;;;;4914544;28;20871;-88
2022/10/09 10:29:04;;;;;;;5.28;4.50;;;;;;;;;;4914648;28;20390;-88
2022/10/09 10:31:36;;;;;;;5.88;4.20;;;;;;;;;;4914316;28;20448;-88
2022/10/09 10:34:03;;;;;;;8.65;4.70;;;;;;;;;;4914080;28;20401;-88
2022/10/09 10:36:29;;;;;;;5.07;4.22;;;;;;;;;;4914243;28;20397;-85
2022/10/09 10:39:01;;;;;;;4.90;4.30;;;;;;;;;;4913146;28;20492;-86
2022/10/09 10:41:31;;;;;;;4.13;3.70;;;;;;;;;;4913674;28;20458;-87
2022/10/09 10:44:01;;;;;;;5.65;3.78;;;;;;;;;;4914266;28;20397;-87
2022/10/09 10:47:03;;;;;;;7.68;4.28;;;;;;;;;;4913244;28;20442;-88
2022/10/09 10:49:30;;;;;;;5.63;3.83;;;;;;;;;;4952850;29;20433;-87
2022/10/09 10:51:58;;;;;;;5.65;3.97;;;;;;;;;;4923065;28;20409;-88
2022/10/09 10:54:49;;;;;;;24.20;17.13;;;;;;;;;;4937943;28;20432;-89
2022/10/09 10:57:18;;;;;;;12.90;9.60;;;;;;;;;;4913942;29;20432;-86
2022/10/09 11:00:04;;;;;;;10.23;7.50;;;;;;;;;;4914023;28;20471;-85
2022/10/09 11:02:49;;;;;;;5.20;3.80;;;;;;;;;;4913847;29;20818;-85
2022/10/09 11:05:27;;;;;;;4.07;3.33;;;;;;;;;;4910160;28;20456;-85
2022/10/09 11:07:56;;;;;;;4.72;3.10;;;;;;;;;;4908178;28;20391;-85
2022/10/09 11:10:26;;;;;;;5.25;4.35;;;;;;;;;;4912337;28;20407;-85
2022/10/09 11:12:57;;;;;;;5.05;3.35;;;;;;;;;;4913446;28;20461;-86
2022/10/09 11:15:36;;;;;;;3.47;3.17;;;;;;;;;;4914115;28;20452;-85
2022/10/09 11:18:06;;;;;;;5.15;3.47;;;;;;;;;;4913665;29;20382;-85
2022/10/09 11:20:32;;;;;;;5.45;4.20;;;;;;;;;;4913709;28;20886;-86
2022/10/09 11:23:24;;;;;;;4.27;3.57;;;;;;;;;;4912876;28;20440;-87
2022/10/09 11:25:57;;;;;;;4.25;3.42;;;;;;;;;;4926767;28;20842;-85
2022/10/09 11:28:34;;;;;;;5.93;3.22;;;;;;;;;;4925778;28;20397;-85
2022/10/09 11:31:03;;;;;;;3.95;3.40;;;;;;;;;;4912679;28;20881;-85
2022/10/09 11:33:35;;;;;;;5.73;3.93;;;;;;;;;;4914908;28;20459;-86
2022/10/09 11:36:13;;;;;;;5.68;4.10;;;;;;;;;;4913690;28;20397;-86
2022/10/09 11:38:48;;;;;;;6.35;5.75;;;;;;;;;;4912344;28;20448;-86
2022/10/09 11:41:14;;;;;;;4.32;3.45;;;;;;;;;;4913365;28;20405;-86
2022/10/09 11:43:57;;;;;;;3.90;3.13;;;;;;;;;;4913081;28;20440;-86
2022/10/09 11:46:24;;;;;;;4.53;3.45;;;;;;;;;;4926248;28;20398;-86
2022/10/09 11:49:05;;;;;;;4.00;3.58;;;;;;;;;;4914549;29;20432;-86
2022/10/09 11:51:31;;;;;;;3.95;3.00;;;;;;;;;;4914750;28;20398;-86
2022/10/09 11:53:58;;;;;;;3.45;2.97;;;;;;;;;;4913502;28;20871;-86
2022/10/09 11:56:26;;;;;;;4.93;2.85;;;;;;;;;;4913476;28;20401;-87
2022/10/09 11:58:59;;;;;;;3.40;3.00;;;;;;;;;;4913441;28;20413;-86
2022/10/09 12:01:29;;;;;;;4.03;2.87;;;;;;;;;;4913132;28;20393;-85
2022/10/09 12:04:03;;;;;;;5.47;2.90;;;;;;;;;;4937913;28;20484;-86
2022/10/09 12:06:30;;;;;;;4.65;3.28;;;;;;;;;;5014985;28;20393;-86
2022/10/09 12:08:58;;;;;;;5.00;3.17;;;;;;;;;;5012137;28;20385;-87
2022/10/09 12:11:24;;;;;;;5.13;2.85;;;;;;;;;;5012153;28;20724;-86
2022/10/09 12:13:50;;;;;;;4.13;2.83;;;;;;;;;;5012298;28;20392;-86
2022/10/09 12:16:35;;;;;;;3.77;2.90;;;;;;;;;;5012218;28;20472;-86
2022/10/09 12:19:11;;;;;;;4.38;2.95;;;;;;;;;;5012150;28;20397;-87
2022/10/09 12:21:39;;;;;;;3.00;2.50;;;;;;;;;;5012199;28;20884;-86
2022/10/09 12:24:06;;;;;;;4.10;2.60;;;;;;;;;;5005047;28;20476;-86
2022/10/09 12:26:33;;;;;;;4.95;3.20;;;;;;;;;;4931249;28;20396;-86
2022/10/09 12:29:00;;;;;;;4.10;2.53;;;;;;;;;;4973682;28;20454;-86
2022/10/09 12:31:29;;;;;;;5.03;3.20;;;;;;;;;;4942583;28;20397;-86
2022/10/09 12:34:15;;;;;;;5.07;3.10;;;;;;;;;;4919582;28;20394;-87
2022/10/09 12:36:41;;;;;;;4.97;3.40;;;;;;;;;;4912760;29;20492;-86
2022/10/09 12:39:14;;;;;;;5.28;3.42;;;;;;;;;;4912735;28;20496;-86
2022/10/09 12:41:40;;;;;;;5.75;3.47;;;;;;;;;;4912669;28;20396;-86
2022/10/09 12:44:14;;;;;;;9.90;3.30;;;;;;;;;;4911901;28;20402;-86
2022/10/09 12:46:40;;;;;;;3.65;3.28;;;;;;;;;;4912759;28;20393;-86
2022/10/09 12:49:24;;;;;;;5.03;3.43;;;;;;;;;;4915500;28;20429;-86
2022/10/09 12:51:52;;;;;;;4.78;3.08;;;;;;;;;;4915834;29;20748;-86
2022/10/09 12:54:18;;;;;;;4.20;3.00;;;;;;;;;;4915986;28;20443;-87
2022/10/09 12:56:44;;;;;;;4.73;2.77;;;;;;;;;;4915809;28;20473;-86
2022/10/09 12:59:12;;;;;;;4.53;3.40;;;;;;;;;;4915836;28;20913;-86
2022/10/09 13:01:39;;;;;;;3.45;3.00;;;;;;;;;;4906377;29;20391;-86
2022/10/09 13:04:07;;;;;;;4.18;2.60;;;;;;;;;;4915840;28;20393;-86
2022/10/09 13:06:33;;;;;;;9.30;2.92;;;;;;;;;;4914495;28;20398;-86
2022/10/09 13:09:02;;;;;;;4.20;3.20;;;;;;;;;;4914867;28;20491;-86
2022/10/09 13:11:39;;;;;;;2.90;2.47;;;;;;;;;;4952308;28;20389;-86
2022/10/09 13:14:05;;;;;;;4.30;3.00;;;;;;;;;;5015474;28;20381;-87
2022/10/09 13:16:41;;;;;;;6.57;3.08;;;;;;;;;;5015108;28;20389;-86
2022/10/09 13:19:24;;;;;;;4.65;3.05;;;;;;;;;;5014869;28;20409;-86
2022/10/09 13:22:20;;;;;;;5.20;3.33;;;;;;;;;;5015252;28;20407;-87
2022/10/09 13:24:47;;;;;;;6.88;3.65;;;;;;;;;;4998487;28;20446;-87
2022/10/09 13:27:13;;;;;;;4.05;2.80;;;;;;;;;;5014942;28;20381;-87
2022/10/09 13:29:40;;;;;;;4.00;2.90;;;;;;;;;;5014794;28;20388;-86
2022/10/09 13:32:07;;;;;;;4.38;3.05;;;;;;;;;;5014773;28;20458;-86
2022/10/09 13:34:34;;;;;;;22.50;19.20;;;;;;;;;;5014748;28;20431;-86
2022/10/09 13:37:00;;;;;;;4.30;3.20;;;;;;;;;;5014734;28;20392;-86
2022/10/09 13:39:26;;;;;;;7.10;3.30;;;;;;;;;;5014764;28;20412;-87
2022/10/09 13:41:54;;;;;;;4.10;3.30;;;;;;;;;;5014508;28;20377;-87
2022/10/09 13:44:20;;;;;;;3.50;3.20;;;;;;;;;;5014797;28;20389;-87
2022/10/09 13:46:46;;;;;;;5.25;3.60;;;;;;;;;;4940104;28;20390;-86
2022/10/09 13:49:12;;;;;;;4.53;3.10;;;;;;;;;;4915263;28;20402;-85
2022/10/09 13:51:38;;;;;;;3.80;2.87;;;;;;;;;;4914853;28;20500;-86
2022/10/09 13:54:04;;;;;;;5.13;4.28;;;;;;;;;;4915010;28;20405;-86
2022/10/09 13:56:31;;;;;;;4.32;2.70;;;;;;;;;;4913990;28;20397;-87
2022/10/09 13:58:57;;;;;;;5.00;2.90;;;;;;;;;;4912237;29;20471;-86
2022/10/09 14:01:23;;;;;;;4.07;3.67;;;;;;;;;;4913159;28;20393;-86
2022/10/09 14:03:49;;;;;;;5.57;4.07;;;;;;;;;;4911492;28;20770;-85
2022/10/09 14:06:15;;;;;;;5.80;3.25;;;;;;;;;;4914210;28;20939;-86
2022/10/09 14:08:41;;;;;;;5.13;3.50;;;;;;;;;;4914619;28;20468;-86
2022/10/09 14:11:07;;;;;;;4.60;3.20;;;;;;;;;;4914736;28;20405;-85
2022/10/09 14:13:33;;;;;;;4.50;3.22;;;;;;;;;;4914814;29;20401;-86
2022/10/09 14:15:59;;;;;;;4.75;3.33;;;;;;;;;;4914755;28;20945;-85
2022/10/09 14:18:25;;;;;;;6.72;4.47;;;;;;;;;;4914699;28;20410;-86
2022/10/09 14:20:51;;;;;;;4.63;3.33;;;;;;;;;;4913942;28;20469;-87
2022/10/09 14:23:17;;;;;;;4.35;3.95;;;;;;;;;;4914122;28;20465;-86
2022/10/09 14:25:43;;;;;;;4.00;3.38;;;;;;;;;;4913825;28;20394;-85
2022/10/09 14:28:09;;;;;;;3.40;3.10;;;;;;;;;;4948850;28;20392;-86
2022/10/09 14:30:39;;;;;;;4.83;3.23;;;;;;;;;;5005513;28;20453;-85
2022/10/09 14:33:05;;;;;;;6.60;3.80;;;;;;;;;;4927234;28;20440;-85
2022/10/09 14:35:31;;;;;;;4.15;3.75;;;;;;;;;;4913732;28;20402;-85
2022/10/09 14:37:58;;;;;;;4.13;3.38;;;;;;;;;;4914346;28;20786;-85
2022/10/09 14:40:24;;;;;;;4.80;3.70;;;;;;;;;;4914356;28;20405;-86
2022/10/09 14:42:50;;;;;;;6.28;3.95;;;;;;;;;;4910652;28;20493;-85
2022/10/09 14:45:16;;;;;;;5.60;4.10;;;;;;;;;;4913045;28;20425;-85
2022/10/09 14:47:42;;;;;;;5.22;4.15;;;;;;;;;;4913787;28;20878;-88
2022/10/09 14:50:08;;;;;;;4.32;3.42;;;;;;;;;;4938629;28;20393;-84
2022/10/09 14:52:34;;;;;;;3.30;3.00;;;;;;;;;;4912961;28;20755;-85
2022/10/09 14:55:00;;;;;;;3.58;2.95;;;;;;;;;;4941501;28;20413;-85
2022/10/09 14:57:26;;;;;;;3.42;3.13;;;;;;;;;;4914110;28;20405;-85
2022/10/09 14:59:52;;;;;;;4.47;3.15;;;;;;;;;;4913946;28;20857;-85
2022/10/09 15:02:18;;;;;;;3.30;2.80;;;;;;;;;;4922254;28;20882;-85
2022/10/09 15:04:44;;;;;;;3.90;2.90;;;;;;;;;;4952021;28;20902;-88
2022/10/09 15:07:10;;;;;;;3.83;2.80;;;;;;;;;;4913866;29;20393;-87
2022/10/09 15:09:36;;;;;;;4.10;2.67;;;;;;;;;;4914003;28;20405;-86
2022/10/09 15:12:02;;;;;;;4.03;2.60;;;;;;;;;;4903667;28;20407;-87
2022/10/09 15:14:28;;;;;;;4.15;2.70;;;;;;;;;;4911834;28;20488;-88
2022/10/09 15:16:54;;;;;;;3.22;2.67;;;;;;;;;;4912089;28;20501;-85
2022/10/09 15:19:20;;;;;;;4.10;2.93;;;;;;;;;;4899621;28;20469;-84
2022/10/09 15:21:46;;;;;;;5.97;2.90;;;;;;;;;;4913691;28;20389;-84
2022/10/09 15:24:12;;;;;;;3.22;2.63;;;;;;;;;;4913411;28;20385;-86
2022/10/09 15:26:38;;;;;;;3.60;2.60;;;;;;;;;;4913753;28;20389;-85
2022/10/09 15:29:05;;;;;;;4.00;2.80;;;;;;;;;;4913445;28;20882;-86
2022/10/09 15:31:35;;;;;;;4.53;2.67;;;;;;;;;;4981571;28;20433;-84
2022/10/09 15:34:02;;;;;;;4.65;2.65;;;;;;;;;;4913336;28;20420;-84
2022/10/09 15:36:29;;;;;;;4.22;2.53;;;;;;;;;;4913517;29;20481;-84
2022/10/09 15:38:55;;;;;;;4.60;3.30;;;;;;;;;;4913579;28;20413;-84
2022/10/09 15:41:21;;;;;;;3.95;2.72;;;;;;;;;;4913454;28;20444;-84
2022/10/09 15:43:47;;;;;;;5.68;3.35;;;;;;;;;;4913218;28;20801;-84
2022/10/09 15:46:13;;;;;;;3.55;3.05;;;;;;;;;;4913494;28;20875;-83
2022/10/09 15:48:39;;;;;;;3.80;3.03;;;;;;;;;;4967422;28;20390;-84
2022/10/09 15:51:05;;;;;;;3.47;2.85;;;;;;;;;;4913215;28;20937;-85
2022/10/09 15:53:32;;;;;;;3.65;3.08;;;;;;;;;;4917450;28;20471;-88
2022/10/09 15:56:02;;;;;;;4.75;3.15;;;;;;;;;;4910820;28;20394;-88
2022/10/09 15:58:28;;;;;;;3.58;2.97;;;;;;;;;;4912651;28;20566;-88
2022/10/09 16:00:54;;;;;;;3.63;2.95;;;;;;;;;;4913240;28;20476;-87
2022/10/09 16:03:20;;;;;;;5.53;3.00;;;;;;;;;;4913688;28;20406;-88
2022/10/09 16:05:49;;;;;;;4.80;3.00;;;;;;;;;;4919512;28;20427;-88
2022/10/09 16:08:16;;;;;;;4.68;3.00;;;;;;;;;;4908492;29;20413;-88
2022/10/09 16:10:43;;;;;;;4.73;3.23;;;;;;;;;;4908883;28;20402;-88
2022/10/09 16:13:09;;;;;;;4.45;3.88;;;;;;;;;;4912731;28;20427;-89
2022/10/09 16:15:38;;;;;;;7.68;5.65;;;;;;;;;;4976372;22;20512;-82
2022/10/09 16:18:04;;;;;;;5.47;4.70;;;;;;;;;;5051935;28;20388;-82
2022/10/09 16:20:32;;;;;;;7.22;5.53;;;;;;;;;;5051644;28;20801;-82
2022/10/09 16:22:58;;;;;;;7.20;5.60;;;;;;;;;;5053006;28;20396;-83
2022/10/09 16:25:24;;;;;;;7.30;5.57;;;;;;;;;;5054968;28;20457;-82
2022/10/09 16:27:50;;;;;;;7.68;5.40;;;;;;;;;;5055678;28;20782;-83
2022/10/09 16:30:16;;;;;;;8.20;5.53;;;;;;;;;;5038115;28;20439;-83
2022/10/09 16:32:42;;;;;;;6.80;4.80;;;;;;;;;;5054529;28;20427;-82
2022/10/09 16:35:08;;;;;;;5.07;4.43;;;;;;;;;;5055537;28;20437;-81
2022/10/09 16:37:34;;;;;;;5.63;3.03;;;;;;;;;;5055655;28;20408;-80
2022/10/09 16:40:00;;;;;;;3.85;2.70;;;;;;;;;;5055649;28;20437;-82
2022/10/09 16:42:26;;;;;;;4.07;3.00;;;;;;;;;;5055531;28;20858;-81
2022/10/09 16:44:52;;;;;;;3.83;2.70;;;;;;;;;;5055420;28;20377;-81
2022/10/09 16:47:18;;;;;;;4.60;2.90;;;;;;;;;;5055163;28;20415;-81
2022/10/09 16:49:44;;;;;;;4.60;2.75;;;;;;;;;;5051817;28;20412;-82
2022/10/09 16:52:10;;;;;;;3.90;2.50;;;;;;;;;;5053648;28;20862;-81
2022/10/09 16:54:38;;;;;;;5.33;2.67;;;;;;;;;;5036742;28;20872;-81
2022/10/09 16:57:05;;;;;;;4.32;3.50;;;;;;;;;;5036958;28;20457;-83
2022/10/09 16:59:33;;;;;;;3.10;2.70;;;;;;;;;;5034265;28;20737;-82
2022/10/09 17:02:01;;;;;;;4.55;4.10;;;;;;;;;;5038482;28;20965;-83
2022/10/09 17:04:27;;;;;;;5.13;4.60;;;;;;;;;;5037384;28;20427;-83
2022/10/09 17:06:53;;;;;;;4.63;3.00;;;;;;;;;;5038279;28;20946;-83
2022/10/09 17:09:20;;;;;;;5.97;2.63;;;;;;;;;;5054594;28;20862;-83
2022/10/09 17:11:46;;;;;;;3.20;2.90;;;;;;;;;;5050500;28;20421;-83
2022/10/09 17:14:12;;;;;;;5.65;2.78;;;;;;;;;;5039592;28;20394;-82
2022/10/09 17:16:39;;;;;;;2.72;2.50;;;;;;;;;;5043772;28;20432;-82
2022/10/09 17:19:05;;;;;;;5.22;3.40;;;;;;;;;;5053286;28;20457;-83
2022/10/09 17:21:31;;;;;;;4.25;3.03;;;;;;;;;;5038824;28;20452;-83
2022/10/09 17:23:59;;;;;;;4.10;2.65;;;;;;;;;;5046198;28;20387;-82
2022/10/09 17:26:26;;;;;;;4.30;2.78;;;;;;;;;;5042247;28;20439;-83
2022/10/09 17:28:52;;;;;;;4.47;2.60;;;;;;;;;;5053739;28;20388;-83
2022/10/09 17:31:19;;;;;;;3.58;2.55;;;;;;;;;;5037131;28;20868;-82
2022/10/09 17:33:47;;;;;;;4.05;2.70;;;;;;;;;;5047723;28;20383;-82
2022/10/09 17:36:14;;;;;;;3.42;2.58;;;;;;;;;;5049401;28;20434;-82
2022/10/09 17:38:40;;;;;;;3.63;2.80;;;;;;;;;;5054277;28;20952;-82
2022/10/09 17:41:07;;;;;;;5.47;3.03;;;;;;;;;;5054437;28;20407;-83
2022/10/09 17:43:34;;;;;;;3.78;2.70;;;;;;;;;;5054205;28;20392;-83
2022/10/09 17:46:00;;;;;;;4.18;2.97;;;;;;;;;;5054280;28;20389;-83
2022/10/09 17:48:27;;;;;;;6.68;2.70;;;;;;;;;;5054221;28;20901;-83
2022/10/09 17:50:54;;;;;;;4.88;2.88;;;;;;;;;;5044108;28;20395;-82
2022/10/09 17:53:23;;;;;;;4.85;2.63;;;;;;;;;;5049922;28;20896;-83
2022/10/09 17:55:50;;;;;;;3.00;2.70;;;;;;;;;;5043683;28;20387;-82
2022/10/09 17:58:17;;;;;;;4.20;2.65;;;;;;;;;;5044078;28;20433;-82
2022/10/09 18:00:43;;;;;;;3.97;2.57;;;;;;;;;;5052200;28;20388;-82
2022/10/09 18:03:09;;;;;;;4.90;2.50;;;;;;;;;;5051009;28;20382;-83
2022/10/09 18:05:41;;;;;;;3.88;2.60;;;;;;;;;;5052111;28;20854;-84
2022/10/09 18:08:07;;;;;;;3.22;2.53;;;;;;;;;;5053786;28;20370;-84
2022/10/09 18:10:35;;;;;;;5.72;3.00;;;;;;;;;;5035827;28;20384;-83
2022/10/09 18:13:01;;;;;;;3.47;2.93;;;;;;;;;;5050586;28;20405;-83
2022/10/09 18:15:27;;;;;;;4.80;3.03;;;;;;;;;;5044570;28;20481;-84
2022/10/09 18:17:54;;;;;;;3.83;2.58;;;;;;;;;;5042729;28;20823;-84
2022/10/09 18:20:20;;;;;;;4.47;3.30;;;;;;;;;;5043880;28;20459;-83
2022/10/09 18:22:46;;;;;;;4.18;3.60;;;;;;;;;;5053732;28;20392;-84
2022/10/09 18:25:12;;;;;;;4.55;4.00;;;;;;;;;;5053450;28;20373;-83
2022/10/09 18:27:38;;;;;;;4.32;3.95;;;;;;;;;;5053475;28;20381;-83
2022/10/09 18:30:05;;;;;;;5.88;5.38;;;;;;;;;;5042789;28;20395;-83
2022/10/09 18:32:31;;;;;;;5.72;4.88;;;;;;;;;;5045878;28;20385;-84
2022/10/09 18:34:57;;;;;;;4.72;3.70;;;;;;;;;;5067309;28;20418;-83
2022/10/09 18:37:23;;;;;;;6.13;5.53;;;;;;;;;;5053371;28;20389;-83
2022/10/09 18:39:49;;;;;;;4.68;4.28;;;;;;;;;;5053320;28;20424;-83
2022/10/09 18:42:15;;;;;;;5.80;3.90;;;;;;;;;;5053149;28;20370;-83
2022/10/09 18:44:42;;;;;;;8.27;4.40;;;;;;;;;;5052800;28;20409;-83
2022/10/09 18:47:11;;;;;;;5.82;4.40;;;;;;;;;;5034909;28;20384;-83
2022/10/09 18:49:40;;;;;;;5.15;4.65;;;;;;;;;;5053066;28;20378;-83